sensor_id;sensor_type;location;lat;lon;timestamp;P1;durP1;ratioP1;P2;durP2;ratioP2
18445;SDS011;9352;50.888;4.466;2023-05-28T00:02:02;18.88;;;7.18;;
18445;SDS011;9352;50.888;4.466;2023-05-28T00:04:30;18.65;;;7.00;;
18445;SDS011;9352;50.888;4.466;2023-05-28T00:06:57;24.67;;;6.38;;
18445;SDS011;9352;50.888;4.466;2023-05-28T00:09:24;21.17;;;6.32;;
18445;SDS011;9352;50.888;4.466;2023-05-28T00:11:52;17.13;;;7.00;;
18445;SDS011;9352;50.888;4.466;2023-05-28T00:14:21;20.40;;;6.35;;
18445;SDS011;9352;50.888;4.466;2023-05-28T00:16:48;13.95;;;7.07;;
18445;SDS011;9352;50.888;4.466;2023-05-28T00:19:16;18.45;;;7.03;;
18445;SDS011;9352;50.888;4.466;2023-05-28T00:21:43;19.30;;;6.68;;
18445;SDS011;9352;50.888;4.466;2023-05-28T00:24:10;22.30;;;7.10;;
18445;SDS011;9352;50.888;4.466;2023-05-28T00:26:36;20.60;;;6.90;;
18445;SDS011;9352;50.888;4.466;2023-05-28T00:29:05;16.42;;;6.65;;
18445;SDS011;9352;50.888;4.466;2023-05-28T00:31:32;21.17;;;7.28;;
18445;SDS011;9352;50.888;4.466;2023-05-28T00:33:58;15.43;;;6.78;;
18445;SDS011;9352;50.888;4.466;2023-05-28T00:36:26;20.27;;;6.85;;
18445;SDS011;9352;50.888;4.466;2023-05-28T00:38:53;18.27;;;7.85;;
18445;SDS011;9352;50.888;4.466;2023-05-28T00:41:20;23.70;;;8.13;;
18445;SDS011;9352;50.888;4.466;2023-05-28T00:43:47;17.38;;;6.82;;
18445;SDS011;9352;50.888;4.466;2023-05-28T00:46:17;19.33;;;7.82;;
18445;SDS011;9352;50.888;4.466;2023-05-28T00:48:46;19.60;;;7.25;;
18445;SDS011;9352;50.888;4.466;2023-05-28T00:51:14;20.95;;;7.78;;
18445;SDS011;9352;50.888;4.466;2023-05-28T00:53:41;23.15;;;7.47;;
18445;SDS011;9352;50.888;4.466;2023-05-28T00:56:09;26.77;;;8.60;;
18445;SDS011;9352;50.888;4.466;2023-05-28T00:58:37;18.90;;;7.57;;
18445;SDS011;9352;50.888;4.466;2023-05-28T01:01:05;18.10;;;7.45;;
18445;SDS011;9352;50.888;4.466;2023-05-28T01:03:34;18.63;;;7.88;;
18445;SDS011;9352;50.888;4.466;2023-05-28T01:06:03;15.43;;;7.20;;
18445;SDS011;9352;50.888;4.466;2023-05-28T01:08:32;25.65;;;8.23;;
18445;SDS011;9352;50.888;4.466;2023-05-28T01:10:59;30.45;;;8.45;;
18445;SDS011;9352;50.888;4.466;2023-05-28T01:13:26;20.60;;;7.68;;
18445;SDS011;9352;50.888;4.466;2023-05-28T01:15:53;20.40;;;8.20;;
18445;SDS011;9352;50.888;4.466;2023-05-28T01:18:21;23.73;;;7.97;;
18445;SDS011;9352;50.888;4.466;2023-05-28T01:20:50;17.65;;;7.63;;
18445;SDS011;9352;50.888;4.466;2023-05-28T01:23:18;21.92;;;7.93;;
18445;SDS011;9352;50.888;4.466;2023-05-28T01:25:50;20.83;;;8.10;;
18445;SDS011;9352;50.888;4.466;2023-05-28T01:28:19;20.00;;;8.45;;
18445;SDS011;9352;50.888;4.466;2023-05-28T01:30:46;28.13;;;9.00;;
18445;SDS011;9352;50.888;4.466;2023-05-28T01:33:13;22.10;;;8.90;;
18445;SDS011;9352;50.888;4.466;2023-05-28T01:35:41;23.50;;;8.73;;
18445;SDS011;9352;50.888;4.466;2023-05-28T01:38:09;19.65;;;8.73;;
18445;SDS011;9352;50.888;4.466;2023-05-28T01:40:37;19.52;;;8.98;;
18445;SDS011;9352;50.888;4.466;2023-05-28T01:43:07;28.75;;;9.30;;
18445;SDS011;9352;50.888;4.466;2023-05-28T01:45:34;25.20;;;9.15;;
18445;SDS011;9352;50.888;4.466;2023-05-28T01:48:02;17.42;;;8.93;;
18445;SDS011;9352;50.888;4.466;2023-05-28T01:50:29;18.35;;;8.82;;
18445;SDS011;9352;50.888;4.466;2023-05-28T01:52:57;25.30;;;9.13;;
18445;SDS011;9352;50.888;4.466;2023-05-28T01:55:24;28.73;;;9.52;;
18445;SDS011;9352;50.888;4.466;2023-05-28T01:57:51;26.42;;;10.20;;
18445;SDS011;9352;50.888;4.466;2023-05-28T02:00:20;27.13;;;9.30;;
18445;SDS011;9352;50.888;4.466;2023-05-28T02:02:48;30.05;;;10.43;;
18445;SDS011;9352;50.888;4.466;2023-05-28T02:05:15;31.63;;;10.02;;
18445;SDS011;9352;50.888;4.466;2023-05-28T02:07:42;24.17;;;9.90;;
18445;SDS011;9352;50.888;4.466;2023-05-28T02:10:10;25.05;;;9.43;;
18445;SDS011;9352;50.888;4.466;2023-05-28T02:12:37;24.40;;;10.55;;
18445;SDS011;9352;50.888;4.466;2023-05-28T02:15:04;26.45;;;10.25;;
18445;SDS011;9352;50.888;4.466;2023-05-28T02:17:33;28.02;;;9.88;;
18445;SDS011;9352;50.888;4.466;2023-05-28T02:20:00;27.58;;;10.15;;
18445;SDS011;9352;50.888;4.466;2023-05-28T02:22:27;25.40;;;10.43;;
18445;SDS011;9352;50.888;4.466;2023-05-28T02:24:54;24.25;;;9.98;;
18445;SDS011;9352;50.888;4.466;2023-05-28T02:27:21;26.95;;;9.95;;
18445;SDS011;9352;50.888;4.466;2023-05-28T02:29:48;23.42;;;9.77;;
18445;SDS011;9352;50.888;4.466;2023-05-28T02:32:15;22.02;;;9.55;;
18445;SDS011;9352;50.888;4.466;2023-05-28T02:34:43;22.35;;;10.18;;
18445;SDS011;9352;50.888;4.466;2023-05-28T02:37:10;26.08;;;10.07;;
18445;SDS011;9352;50.888;4.466;2023-05-28T02:39:37;27.08;;;10.32;;
18445;SDS011;9352;50.888;4.466;2023-05-28T02:42:04;28.50;;;10.35;;
18445;SDS011;9352;50.888;4.466;2023-05-28T02:44:32;23.50;;;9.80;;
18445;SDS011;9352;50.888;4.466;2023-05-28T02:46:59;24.27;;;10.18;;
18445;SDS011;9352;50.888;4.466;2023-05-28T02:49:26;32.20;;;11.15;;
18445;SDS011;9352;50.888;4.466;2023-05-28T02:51:54;31.30;;;11.25;;
18445;SDS011;9352;50.888;4.466;2023-05-28T02:54:21;24.73;;;10.32;;
18445;SDS011;9352;50.888;4.466;2023-05-28T02:56:48;32.55;;;11.90;;
18445;SDS011;9352;50.888;4.466;2023-05-28T02:59:15;24.33;;;11.30;;
18445;SDS011;9352;50.888;4.466;2023-05-28T03:01:42;20.30;;;10.18;;
18445;SDS011;9352;50.888;4.466;2023-05-28T03:04:09;25.13;;;10.85;;
18445;SDS011;9352;50.888;4.466;2023-05-28T03:06:35;24.30;;;10.15;;
18445;SDS011;9352;50.888;4.466;2023-05-28T03:09:04;31.73;;;10.85;;
18445;SDS011;9352;50.888;4.466;2023-05-28T03:11:31;29.02;;;11.23;;
18445;SDS011;9352;50.888;4.466;2023-05-28T03:13:58;26.50;;;11.30;;
18445;SDS011;9352;50.888;4.466;2023-05-28T03:16:25;33.05;;;11.10;;
18445;SDS011;9352;50.888;4.466;2023-05-28T03:18:52;24.40;;;10.55;;
18445;SDS011;9352;50.888;4.466;2023-05-28T03:21:18;24.20;;;10.43;;
18445;SDS011;9352;50.888;4.466;2023-05-28T03:23:45;33.72;;;10.98;;
18445;SDS011;9352;50.888;4.466;2023-05-28T03:26:13;31.23;;;11.05;;
18445;SDS011;9352;50.888;4.466;2023-05-28T03:28:40;35.33;;;11.73;;
18445;SDS011;9352;50.888;4.466;2023-05-28T03:31:07;25.48;;;10.60;;
18445;SDS011;9352;50.888;4.466;2023-05-28T03:33:34;28.95;;;11.18;;
18445;SDS011;9352;50.888;4.466;2023-05-28T03:36:01;31.77;;;11.00;;
18445;SDS011;9352;50.888;4.466;2023-05-28T03:38:28;28.45;;;11.10;;
18445;SDS011;9352;50.888;4.466;2023-05-28T03:40:55;29.52;;;11.52;;
18445;SDS011;9352;50.888;4.466;2023-05-28T03:43:23;25.80;;;10.98;;
18445;SDS011;9352;50.888;4.466;2023-05-28T03:45:50;26.55;;;11.20;;
18445;SDS011;9352;50.888;4.466;2023-05-28T03:48:17;30.63;;;12.38;;
18445;SDS011;9352;50.888;4.466;2023-05-28T03:50:43;26.13;;;10.73;;
18445;SDS011;9352;50.888;4.466;2023-05-28T03:53:11;32.78;;;12.10;;
18445;SDS011;9352;50.888;4.466;2023-05-28T03:55:38;29.58;;;11.60;;
18445;SDS011;9352;50.888;4.466;2023-05-28T03:58:05;32.90;;;11.40;;
18445;SDS011;9352;50.888;4.466;2023-05-28T04:00:35;33.63;;;12.45;;
18445;SDS011;9352;50.888;4.466;2023-05-28T04:03:02;34.28;;;11.52;;
18445;SDS011;9352;50.888;4.466;2023-05-28T04:05:29;34.00;;;12.02;;
18445;SDS011;9352;50.888;4.466;2023-05-28T04:07:58;31.65;;;13.00;;
18445;SDS011;9352;50.888;4.466;2023-05-28T04:10:25;36.53;;;12.13;;
18445;SDS011;9352;50.888;4.466;2023-05-28T04:12:52;24.13;;;11.55;;
18445;SDS011;9352;50.888;4.466;2023-05-28T04:15:20;25.40;;;11.93;;
18445;SDS011;9352;50.888;4.466;2023-05-28T04:17:48;30.60;;;12.13;;
18445;SDS011;9352;50.888;4.466;2023-05-28T04:20:15;32.25;;;12.50;;
18445;SDS011;9352;50.888;4.466;2023-05-28T04:22:42;27.83;;;12.02;;
18445;SDS011;9352;50.888;4.466;2023-05-28T04:25:09;26.80;;;11.25;;
18445;SDS011;9352;50.888;4.466;2023-05-28T04:27:35;26.65;;;12.15;;
18445;SDS011;9352;50.888;4.466;2023-05-28T04:30:03;34.78;;;12.35;;
18445;SDS011;9352;50.888;4.466;2023-05-28T04:32:31;32.58;;;12.35;;
18445;SDS011;9352;50.888;4.466;2023-05-28T04:34:59;33.90;;;12.70;;
18445;SDS011;9352;50.888;4.466;2023-05-28T04:37:28;28.65;;;11.65;;
18445;SDS011;9352;50.888;4.466;2023-05-28T04:39:58;41.15;;;12.45;;
18445;SDS011;9352;50.888;4.466;2023-05-28T04:42:25;35.78;;;12.25;;
18445;SDS011;9352;50.888;4.466;2023-05-28T04:44:53;34.85;;;12.70;;
18445;SDS011;9352;50.888;4.466;2023-05-28T04:47:20;26.42;;;11.85;;
18445;SDS011;9352;50.888;4.466;2023-05-28T04:49:47;32.65;;;12.00;;
18445;SDS011;9352;50.888;4.466;2023-05-28T04:52:16;25.75;;;11.85;;
18445;SDS011;9352;50.888;4.466;2023-05-28T04:54:44;29.38;;;12.73;;
18445;SDS011;9352;50.888;4.466;2023-05-28T04:57:11;30.05;;;12.60;;
18445;SDS011;9352;50.888;4.466;2023-05-28T04:59:38;34.15;;;12.65;;
18445;SDS011;9352;50.888;4.466;2023-05-28T05:02:05;46.15;;;13.63;;
18445;SDS011;9352;50.888;4.466;2023-05-28T05:04:32;35.28;;;12.73;;
18445;SDS011;9352;50.888;4.466;2023-05-28T05:06:59;34.92;;;12.25;;
18445;SDS011;9352;50.888;4.466;2023-05-28T05:09:27;30.45;;;12.40;;
18445;SDS011;9352;50.888;4.466;2023-05-28T05:11:55;32.08;;;12.43;;
18445;SDS011;9352;50.888;4.466;2023-05-28T05:14:22;30.05;;;12.63;;
18445;SDS011;9352;50.888;4.466;2023-05-28T05:16:49;28.15;;;12.57;;
18445;SDS011;9352;50.888;4.466;2023-05-28T05:19:16;52.45;;;13.68;;
18445;SDS011;9352;50.888;4.466;2023-05-28T05:21:43;30.40;;;12.38;;
18445;SDS011;9352;50.888;4.466;2023-05-28T05:24:10;29.40;;;12.27;;
18445;SDS011;9352;50.888;4.466;2023-05-28T05:26:38;30.23;;;12.60;;
18445;SDS011;9352;50.888;4.466;2023-05-28T05:29:05;29.95;;;11.82;;
18445;SDS011;9352;50.888;4.466;2023-05-28T05:31:32;28.35;;;12.18;;
18445;SDS011;9352;50.888;4.466;2023-05-28T05:33:59;26.80;;;12.43;;
18445;SDS011;9352;50.888;4.466;2023-05-28T05:36:26;27.75;;;12.63;;
18445;SDS011;9352;50.888;4.466;2023-05-28T05:38:53;29.60;;;12.50;;
18445;SDS011;9352;50.888;4.466;2023-05-28T05:41:20;25.98;;;12.23;;
18445;SDS011;9352;50.888;4.466;2023-05-28T05:43:48;28.77;;;11.90;;
18445;SDS011;9352;50.888;4.466;2023-05-28T05:46:15;30.25;;;12.70;;
18445;SDS011;9352;50.888;4.466;2023-05-28T05:48:42;32.10;;;12.23;;
18445;SDS011;9352;50.888;4.466;2023-05-28T05:51:09;30.13;;;12.20;;
18445;SDS011;9352;50.888;4.466;2023-05-28T05:53:41;30.33;;;11.63;;
18445;SDS011;9352;50.888;4.466;2023-05-28T05:56:08;29.58;;;11.45;;
18445;SDS011;9352;50.888;4.466;2023-05-28T05:58:36;24.10;;;10.65;;
18445;SDS011;9352;50.888;4.466;2023-05-28T06:01:04;25.67;;;11.95;;
18445;SDS011;9352;50.888;4.466;2023-05-28T06:03:31;27.95;;;11.88;;
18445;SDS011;9352;50.888;4.466;2023-05-28T06:05:58;31.65;;;11.88;;
18445;SDS011;9352;50.888;4.466;2023-05-28T06:08:25;29.42;;;10.80;;
18445;SDS011;9352;50.888;4.466;2023-05-28T06:10:52;31.80;;;11.70;;
18445;SDS011;9352;50.888;4.466;2023-05-28T06:13:19;25.42;;;11.32;;
18445;SDS011;9352;50.888;4.466;2023-05-28T06:15:46;25.42;;;11.48;;
18445;SDS011;9352;50.888;4.466;2023-05-28T06:18:14;24.08;;;12.13;;
18445;SDS011;9352;50.888;4.466;2023-05-28T06:20:41;22.75;;;10.70;;
18445;SDS011;9352;50.888;4.466;2023-05-28T06:23:08;24.00;;;10.80;;
18445;SDS011;9352;50.888;4.466;2023-05-28T06:25:35;30.95;;;12.38;;
18445;SDS011;9352;50.888;4.466;2023-05-28T06:28:02;26.45;;;11.05;;
18445;SDS011;9352;50.888;4.466;2023-05-28T06:30:29;28.75;;;10.15;;
18445;SDS011;9352;50.888;4.466;2023-05-28T06:32:56;24.85;;;10.82;;
18445;SDS011;9352;50.888;4.466;2023-05-28T06:35:24;25.13;;;11.25;;
18445;SDS011;9352;50.888;4.466;2023-05-28T06:37:51;25.02;;;11.27;;
18445;SDS011;9352;50.888;4.466;2023-05-28T06:40:18;20.70;;;10.60;;
18445;SDS011;9352;50.888;4.466;2023-05-28T06:42:45;23.58;;;11.48;;
18445;SDS011;9352;50.888;4.466;2023-05-28T06:45:12;27.00;;;11.43;;
18445;SDS011;9352;50.888;4.466;2023-05-28T06:47:39;26.08;;;11.02;;
18445;SDS011;9352;50.888;4.466;2023-05-28T06:50:06;25.00;;;11.38;;
18445;SDS011;9352;50.888;4.466;2023-05-28T06:52:35;20.50;;;10.50;;
18445;SDS011;9352;50.888;4.466;2023-05-28T06:55:01;23.95;;;10.02;;
18445;SDS011;9352;50.888;4.466;2023-05-28T06:57:32;26.00;;;10.18;;
18445;SDS011;9352;50.888;4.466;2023-05-28T06:59:59;27.83;;;10.55;;
18445;SDS011;9352;50.888;4.466;2023-05-28T07:02:26;23.83;;;10.07;;
18445;SDS011;9352;50.888;4.466;2023-05-28T07:04:52;21.00;;;10.45;;
18445;SDS011;9352;50.888;4.466;2023-05-28T07:07:19;23.17;;;10.45;;
18445;SDS011;9352;50.888;4.466;2023-05-28T07:09:48;27.08;;;10.52;;
18445;SDS011;9352;50.888;4.466;2023-05-28T07:12:14;26.45;;;9.88;;
18445;SDS011;9352;50.888;4.466;2023-05-28T07:14:41;20.38;;;9.70;;
18445;SDS011;9352;50.888;4.466;2023-05-28T07:17:09;19.65;;;9.70;;
18445;SDS011;9352;50.888;4.466;2023-05-28T07:19:37;27.10;;;10.43;;
18445;SDS011;9352;50.888;4.466;2023-05-28T07:22:04;21.65;;;9.23;;
18445;SDS011;9352;50.888;4.466;2023-05-28T07:24:30;19.40;;;8.60;;
18445;SDS011;9352;50.888;4.466;2023-05-28T07:26:59;27.10;;;8.95;;
18445;SDS011;9352;50.888;4.466;2023-05-28T07:29:26;22.58;;;8.68;;
18445;SDS011;9352;50.888;4.466;2023-05-28T07:31:53;21.98;;;8.38;;
18445;SDS011;9352;50.888;4.466;2023-05-28T07:34:20;23.60;;;8.63;;
18445;SDS011;9352;50.888;4.466;2023-05-28T07:36:47;23.15;;;8.98;;
18445;SDS011;9352;50.888;4.466;2023-05-28T07:39:14;19.60;;;9.13;;
18445;SDS011;9352;50.888;4.466;2023-05-28T07:41:41;17.10;;;8.32;;
18445;SDS011;9352;50.888;4.466;2023-05-28T07:44:09;15.75;;;8.20;;
18445;SDS011;9352;50.888;4.466;2023-05-28T07:46:36;20.55;;;8.77;;
18445;SDS011;9352;50.888;4.466;2023-05-28T07:49:03;17.70;;;7.72;;
18445;SDS011;9352;50.888;4.466;2023-05-28T07:51:30;22.63;;;8.23;;
18445;SDS011;9352;50.888;4.466;2023-05-28T07:53:57;21.20;;;8.07;;
18445;SDS011;9352;50.888;4.466;2023-05-28T07:56:24;15.25;;;7.63;;
18445;SDS011;9352;50.888;4.466;2023-05-28T07:58:51;20.75;;;7.97;;
18445;SDS011;9352;50.888;4.466;2023-05-28T08:01:19;18.85;;;7.50;;
18445;SDS011;9352;50.888;4.466;2023-05-28T08:03:46;19.50;;;7.75;;
18445;SDS011;9352;50.888;4.466;2023-05-28T08:06:16;15.90;;;7.10;;
18445;SDS011;9352;50.888;4.466;2023-05-28T08:08:43;19.58;;;7.80;;
18445;SDS011;9352;50.888;4.466;2023-05-28T08:11:10;13.55;;;7.15;;
18445;SDS011;9352;50.888;4.466;2023-05-28T08:13:38;16.67;;;7.43;;
18445;SDS011;9352;50.888;4.466;2023-05-28T08:16:05;15.65;;;7.38;;
18445;SDS011;9352;50.888;4.466;2023-05-28T08:18:33;24.00;;;7.68;;
18445;SDS011;9352;50.888;4.466;2023-05-28T08:21:01;17.83;;;7.30;;
18445;SDS011;9352;50.888;4.466;2023-05-28T08:23:28;18.50;;;6.38;;
18445;SDS011;9352;50.888;4.466;2023-05-28T08:25:59;15.35;;;7.70;;
18445;SDS011;9352;50.888;4.466;2023-05-28T08:28:26;15.32;;;6.72;;
18445;SDS011;9352;50.888;4.466;2023-05-28T08:30:53;17.83;;;6.90;;
18445;SDS011;9352;50.888;4.466;2023-05-28T08:33:20;17.85;;;7.03;;
18445;SDS011;9352;50.888;4.466;2023-05-28T08:35:48;18.75;;;7.43;;
18445;SDS011;9352;50.888;4.466;2023-05-28T08:38:15;14.82;;;7.70;;
18445;SDS011;9352;50.888;4.466;2023-05-28T08:40:43;14.45;;;6.60;;
18445;SDS011;9352;50.888;4.466;2023-05-28T08:43:14;15.20;;;6.95;;
18445;SDS011;9352;50.888;4.466;2023-05-28T08:45:41;15.20;;;6.60;;
18445;SDS011;9352;50.888;4.466;2023-05-28T08:48:08;16.27;;;6.57;;
18445;SDS011;9352;50.888;4.466;2023-05-28T08:50:37;14.95;;;6.50;;
18445;SDS011;9352;50.888;4.466;2023-05-28T08:53:07;13.32;;;6.80;;
18445;SDS011;9352;50.888;4.466;2023-05-28T08:55:38;14.95;;;6.50;;
18445;SDS011;9352;50.888;4.466;2023-05-28T08:58:05;17.13;;;6.60;;
18445;SDS011;9352;50.888;4.466;2023-05-28T09:00:33;16.48;;;6.43;;
18445;SDS011;9352;50.888;4.466;2023-05-28T09:03:00;20.48;;;6.55;;
18445;SDS011;9352;50.888;4.466;2023-05-28T09:05:32;16.30;;;6.60;;
18445;SDS011;9352;50.888;4.466;2023-05-28T09:08:01;12.73;;;6.60;;
18445;SDS011;9352;50.888;4.466;2023-05-28T09:10:30;14.25;;;6.20;;
18445;SDS011;9352;50.888;4.466;2023-05-28T09:12:58;13.82;;;6.13;;
18445;SDS011;9352;50.888;4.466;2023-05-28T09:15:25;14.27;;;6.25;;
18445;SDS011;9352;50.888;4.466;2023-05-28T09:17:52;18.20;;;6.70;;
18445;SDS011;9352;50.888;4.466;2023-05-28T09:20:19;15.48;;;5.70;;
18445;SDS011;9352;50.888;4.466;2023-05-28T09:22:52;20.58;;;5.78;;
18445;SDS011;9352;50.888;4.466;2023-05-28T09:25:24;13.38;;;5.65;;
18445;SDS011;9352;50.888;4.466;2023-05-28T09:27:53;12.18;;;5.40;;
18445;SDS011;9352;50.888;4.466;2023-05-28T09:30:20;16.17;;;4.97;;
18445;SDS011;9352;50.888;4.466;2023-05-28T09:32:55;15.90;;;5.03;;
18445;SDS011;9352;50.888;4.466;2023-05-28T09:35:24;12.30;;;5.20;;
18445;SDS011;9352;50.888;4.466;2023-05-28T09:37:58;9.95;;;5.25;;
18445;SDS011;9352;50.888;4.466;2023-05-28T09:40:26;12.93;;;5.20;;
18445;SDS011;9352;50.888;4.466;2023-05-28T09:42:54;14.27;;;5.53;;
18445;SDS011;9352;50.888;4.466;2023-05-28T09:45:22;14.05;;;5.80;;
18445;SDS011;9352;50.888;4.466;2023-05-28T09:47:50;16.45;;;5.97;;
18445;SDS011;9352;50.888;4.466;2023-05-28T09:50:17;15.77;;;5.30;;
18445;SDS011;9352;50.888;4.466;2023-05-28T09:52:45;10.90;;;5.30;;
18445;SDS011;9352;50.888;4.466;2023-05-28T09:55:13;12.10;;;5.40;;
18445;SDS011;9352;50.888;4.466;2023-05-28T09:57:45;13.90;;;5.40;;
18445;SDS011;9352;50.888;4.466;2023-05-28T10:00:17;12.73;;;5.28;;
18445;SDS011;9352;50.888;4.466;2023-05-28T10:02:51;14.48;;;5.13;;
18445;SDS011;9352;50.888;4.466;2023-05-28T10:05:25;10.55;;;5.25;;
18445;SDS011;9352;50.888;4.466;2023-05-28T10:07:55;14.07;;;5.97;;
18445;SDS011;9352;50.888;4.466;2023-05-28T10:10:24;13.40;;;5.10;;
18445;SDS011;9352;50.888;4.466;2023-05-28T10:12:53;28.05;;;5.35;;
18445;SDS011;9352;50.888;4.466;2023-05-28T10:15:23;16.98;;;5.80;;
18445;SDS011;9352;50.888;4.466;2023-05-28T10:17:50;12.63;;;5.45;;
18445;SDS011;9352;50.888;4.466;2023-05-28T10:20:18;11.57;;;4.93;;
18445;SDS011;9352;50.888;4.466;2023-05-28T10:22:45;13.57;;;5.70;;
18445;SDS011;9352;50.888;4.466;2023-05-28T10:25:13;11.82;;;6.28;;
18445;SDS011;9352;50.888;4.466;2023-05-28T10:27:43;14.60;;;5.78;;
18445;SDS011;9352;50.888;4.466;2023-05-28T10:30:14;12.35;;;5.47;;
18445;SDS011;9352;50.888;4.466;2023-05-28T10:32:58;13.70;;;5.32;;
18445;SDS011;9352;50.888;4.466;2023-05-28T10:35:25;11.07;;;5.03;;
18445;SDS011;9352;50.888;4.466;2023-05-28T10:38:01;14.30;;;4.82;;
18445;SDS011;9352;50.888;4.466;2023-05-28T10:40:32;9.98;;;5.28;;
18445;SDS011;9352;50.888;4.466;2023-05-28T10:43:00;12.90;;;5.22;;
18445;SDS011;9352;50.888;4.466;2023-05-28T10:45:35;13.23;;;4.90;;
18445;SDS011;9352;50.888;4.466;2023-05-28T10:48:04;16.58;;;5.93;;
18445;SDS011;9352;50.888;4.466;2023-05-28T10:50:31;14.30;;;5.47;;
18445;SDS011;9352;50.888;4.466;2023-05-28T10:53:02;9.77;;;4.95;;
18445;SDS011;9352;50.888;4.466;2023-05-28T10:55:32;11.52;;;5.78;;
18445;SDS011;9352;50.888;4.466;2023-05-28T10:58:16;12.15;;;5.50;;
18445;SDS011;9352;50.888;4.466;2023-05-28T11:00:50;11.32;;;5.05;;
18445;SDS011;9352;50.888;4.466;2023-05-28T11:03:17;13.45;;;5.82;;
18445;SDS011;9352;50.888;4.466;2023-05-28T11:06:04;12.93;;;5.00;;
18445;SDS011;9352;50.888;4.466;2023-05-28T11:08:32;14.27;;;5.13;;
18445;SDS011;9352;50.888;4.466;2023-05-28T11:11:03;12.10;;;5.40;;
18445;SDS011;9352;50.888;4.466;2023-05-28T11:13:30;18.27;;;5.10;;
18445;SDS011;9352;50.888;4.466;2023-05-28T11:16:06;11.32;;;5.30;;
18445;SDS011;9352;50.888;4.466;2023-05-28T11:18:34;17.08;;;6.32;;
18445;SDS011;9352;50.888;4.466;2023-05-28T11:21:05;14.30;;;4.53;;
18445;SDS011;9352;50.888;4.466;2023-05-28T11:23:33;8.68;;;5.18;;
18445;SDS011;9352;50.888;4.466;2023-05-28T11:26:01;10.95;;;5.00;;
18445;SDS011;9352;50.888;4.466;2023-05-28T11:28:29;9.65;;;5.00;;
18445;SDS011;9352;50.888;4.466;2023-05-28T11:30:57;10.75;;;4.90;;
18445;SDS011;9352;50.888;4.466;2023-05-28T11:33:28;12.85;;;5.50;;
18445;SDS011;9352;50.888;4.466;2023-05-28T11:35:56;10.10;;;4.93;;
18445;SDS011;9352;50.888;4.466;2023-05-28T11:38:27;10.80;;;5.32;;
18445;SDS011;9352;50.888;4.466;2023-05-28T11:40:58;12.63;;;5.28;;
18445;SDS011;9352;50.888;4.466;2023-05-28T11:43:26;14.98;;;5.55;;
18445;SDS011;9352;50.888;4.466;2023-05-28T11:45:57;9.70;;;5.00;;
18445;SDS011;9352;50.888;4.466;2023-05-28T11:48:25;10.35;;;4.80;;
18445;SDS011;9352;50.888;4.466;2023-05-28T11:50:58;6.15;;;4.10;;
18445;SDS011;9352;50.888;4.466;2023-05-28T11:53:37;11.70;;;5.10;;
18445;SDS011;9352;50.888;4.466;2023-05-28T11:56:05;11.43;;;4.80;;
18445;SDS011;9352;50.888;4.466;2023-05-28T11:58:32;8.98;;;5.00;;
18445;SDS011;9352;50.888;4.466;2023-05-28T12:01:02;10.57;;;4.80;;
18445;SDS011;9352;50.888;4.466;2023-05-28T12:03:29;9.75;;;4.60;;
18445;SDS011;9352;50.888;4.466;2023-05-28T12:05:56;10.13;;;5.30;;
18445;SDS011;9352;50.888;4.466;2023-05-28T12:08:25;9.40;;;4.70;;
18445;SDS011;9352;50.888;4.466;2023-05-28T12:10:53;11.73;;;4.95;;
18445;SDS011;9352;50.888;4.466;2023-05-28T12:13:29;11.43;;;5.00;;
18445;SDS011;9352;50.888;4.466;2023-05-28T12:16:04;8.50;;;4.38;;
18445;SDS011;9352;50.888;4.466;2023-05-28T12:18:32;15.15;;;4.90;;
18445;SDS011;9352;50.888;4.466;2023-05-28T12:20:59;10.13;;;5.10;;
18445;SDS011;9352;50.888;4.466;2023-05-28T12:23:28;14.70;;;5.65;;
18445;SDS011;9352;50.888;4.466;2023-05-28T12:25:54;9.77;;;5.40;;
18445;SDS011;9352;50.888;4.466;2023-05-28T12:28:22;15.25;;;5.72;;
18445;SDS011;9352;50.888;4.466;2023-05-28T12:30:50;9.48;;;5.07;;
18445;SDS011;9352;50.888;4.466;2023-05-28T12:33:18;9.80;;;4.95;;
18445;SDS011;9352;50.888;4.466;2023-05-28T12:35:45;11.80;;;4.88;;
18445;SDS011;9352;50.888;4.466;2023-05-28T12:38:12;9.48;;;4.68;;
18445;SDS011;9352;50.888;4.466;2023-05-28T12:40:41;9.65;;;4.72;;
18445;SDS011;9352;50.888;4.466;2023-05-28T12:43:08;9.15;;;4.72;;
18445;SDS011;9352;50.888;4.466;2023-05-28T12:45:35;8.85;;;4.72;;
18445;SDS011;9352;50.888;4.466;2023-05-28T12:48:02;8.85;;;4.75;;
18445;SDS011;9352;50.888;4.466;2023-05-28T12:50:29;16.38;;;5.47;;
18445;SDS011;9352;50.888;4.466;2023-05-28T12:52:56;12.00;;;5.30;;
18445;SDS011;9352;50.888;4.466;2023-05-28T12:55:23;12.18;;;5.00;;
18445;SDS011;9352;50.888;4.466;2023-05-28T12:57:51;12.23;;;5.45;;
18445;SDS011;9352;50.888;4.466;2023-05-28T13:00:18;8.70;;;4.80;;
18445;SDS011;9352;50.888;4.466;2023-05-28T13:02:45;13.88;;;5.50;;
18445;SDS011;9352;50.888;4.466;2023-05-28T13:05:12;10.68;;;5.30;;
18445;SDS011;9352;50.888;4.466;2023-05-28T13:07:39;9.23;;;5.00;;
18445;SDS011;9352;50.888;4.466;2023-05-28T13:10:06;12.10;;;5.03;;
18445;SDS011;9352;50.888;4.466;2023-05-28T13:12:34;13.15;;;5.05;;
18445;SDS011;9352;50.888;4.466;2023-05-28T13:15:04;21.55;;;5.97;;
18445;SDS011;9352;50.888;4.466;2023-05-28T13:17:31;14.80;;;5.15;;
18445;SDS011;9352;50.888;4.466;2023-05-28T13:19:58;9.18;;;4.72;;
18445;SDS011;9352;50.888;4.466;2023-05-28T13:22:25;10.60;;;5.43;;
18445;SDS011;9352;50.888;4.466;2023-05-28T13:24:52;8.13;;;4.28;;
18445;SDS011;9352;50.888;4.466;2023-05-28T13:27:19;9.30;;;5.13;;
18445;SDS011;9352;50.888;4.466;2023-05-28T13:29:45;10.27;;;5.50;;
18445;SDS011;9352;50.888;4.466;2023-05-28T13:32:14;11.02;;;5.00;;
18445;SDS011;9352;50.888;4.466;2023-05-28T13:34:41;11.45;;;5.50;;
18445;SDS011;9352;50.888;4.466;2023-05-28T13:37:07;9.35;;;5.22;;
18445;SDS011;9352;50.888;4.466;2023-05-28T13:39:34;9.02;;;4.95;;
18445;SDS011;9352;50.888;4.466;2023-05-28T13:42:01;7.22;;;4.60;;
18445;SDS011;9352;50.888;4.466;2023-05-28T13:44:29;12.65;;;5.30;;
18445;SDS011;9352;50.888;4.466;2023-05-28T13:46:56;8.85;;;5.32;;
18445;SDS011;9352;50.888;4.466;2023-05-28T13:49:25;7.93;;;4.90;;
18445;SDS011;9352;50.888;4.466;2023-05-28T13:51:51;11.40;;;5.07;;
18445;SDS011;9352;50.888;4.466;2023-05-28T13:54:18;9.98;;;4.88;;
18445;SDS011;9352;50.888;4.466;2023-05-28T13:56:45;8.82;;;5.80;;
18445;SDS011;9352;50.888;4.466;2023-05-28T13:59:12;9.75;;;5.35;;
18445;SDS011;9352;50.888;4.466;2023-05-28T14:01:39;15.45;;;5.18;;
18445;SDS011;9352;50.888;4.466;2023-05-28T14:04:06;14.20;;;4.82;;
18445;SDS011;9352;50.888;4.466;2023-05-28T14:06:35;15.55;;;4.88;;
18445;SDS011;9352;50.888;4.466;2023-05-28T14:09:02;10.60;;;4.97;;
18445;SDS011;9352;50.888;4.466;2023-05-28T14:11:30;7.82;;;5.00;;
18445;SDS011;9352;50.888;4.466;2023-05-28T14:13:57;10.90;;;5.00;;
18445;SDS011;9352;50.888;4.466;2023-05-28T14:16:24;6.95;;;4.90;;
18445;SDS011;9352;50.888;4.466;2023-05-28T14:18:50;6.88;;;4.65;;
18445;SDS011;9352;50.888;4.466;2023-05-28T14:21:17;12.02;;;4.90;;
18445;SDS011;9352;50.888;4.466;2023-05-28T14:23:46;12.07;;;5.05;;
18445;SDS011;9352;50.888;4.466;2023-05-28T14:26:12;7.10;;;4.80;;
18445;SDS011;9352;50.888;4.466;2023-05-28T14:28:39;12.30;;;5.07;;
18445;SDS011;9352;50.888;4.466;2023-05-28T14:31:06;9.55;;;4.88;;
18445;SDS011;9352;50.888;4.466;2023-05-28T14:33:33;9.77;;;5.05;;
18445;SDS011;9352;50.888;4.466;2023-05-28T14:36:00;10.20;;;5.80;;
18445;SDS011;9352;50.888;4.466;2023-05-28T14:38:27;11.30;;;4.68;;
18445;SDS011;9352;50.888;4.466;2023-05-28T14:40:55;7.10;;;4.30;;
18445;SDS011;9352;50.888;4.466;2023-05-28T14:43:22;10.38;;;4.63;;
18445;SDS011;9352;50.888;4.466;2023-05-28T14:45:49;7.88;;;4.47;;
18445;SDS011;9352;50.888;4.466;2023-05-28T14:48:16;7.65;;;4.90;;
18445;SDS011;9352;50.888;4.466;2023-05-28T14:50:43;7.75;;;4.32;;